Time;durP1;ratioP1;P1;durP2;ratioP2;P2;SDS_P1;SDS_P2;PMS_P1;PMS_P2;Temp;Humidity;BMP_temperature;BMP_pressure;BME280_temperature;BME280_humidity;BME280_pressure;Samples;Min_cycle;Max_cycle;Signal;HPM_P1;HPM_P2
2022/12/25 00:01:20;;;;;;;82.32;21.45;;;6.40;99.90;;;;;;5065590;28;20030;-90
2022/12/25 00:03:46;;;;;;;396.88;35.55;;;6.50;99.90;;;;;;5092798;28;20114;-91
2022/12/25 00:06:11;;;;;;;511.92;38.00;;;6.60;99.90;;;;;;5081800;28;20024;-91
2022/12/25 00:08:38;;;;;;;597.70;44.33;;;6.60;99.90;;;;;;5078113;28;20035;-90
2022/12/25 00:11:07;;;;;;;625.08;41.85;;;6.70;99.90;;;;;;5070265;28;20216;-91
2022/12/25 00:13:33;;;;;;;214.57;26.40;;;6.70;99.90;;;;;;5088380;28;20028;-91
2022/12/25 00:15:59;;;;;;;206.25;26.05;;;6.70;99.90;;;;;;5057079;28;20023;-91
2022/12/25 00:18:25;;;;;;;141.18;25.27;;;6.70;99.90;;;;;;5081060;28;20367;-91
2022/12/25 00:20:59;;;;;;;78.47;24.05;;;6.80;99.90;;;;;;5087479;28;20090;-90
2022/12/25 00:23:26;;;;;;;72.22;21.50;;;6.80;99.90;;;;;;5070687;28;20020;-91
2022/12/25 00:25:52;;;;;;;70.78;21.55;;;6.80;99.90;;;;;;5065410;28;20496;-91
2022/12/25 00:28:18;;;;;;;62.60;19.30;;;6.90;99.90;;;;;;4999423;28;20176;-90
2022/12/25 00:30:44;;;;;;;61.35;17.27;;;6.90;99.90;;;;;;5118049;27;20041;-91
2022/12/25 00:33:09;;;;;;;50.70;18.60;;;6.90;99.90;;;;;;5075965;28;20027;-90
2022/12/25 00:35:35;;;;;;;57.42;18.10;;;7.00;99.90;;;;;;5069148;28;20023;-91
2022/12/25 00:38:04;;;;;;;72.45;22.60;;;7.00;99.90;;;;;;5055219;28;20425;-91
2022/12/25 00:40:30;;;;;;;68.22;19.90;;;7.00;99.90;;;;;;5059707;28;20293;-90
2022/12/25 00:42:55;;;;;;;51.20;16.50;;;7.00;99.90;;;;;;5089036;28;20027;-90
2022/12/25 00:45:21;;;;;;;65.07;22.27;;;7.00;99.90;;;;;;5075977;28;20389;-90
2022/12/25 00:47:47;;;;;;;81.30;28.10;;;6.90;99.90;;;;;;5017272;28;20025;-90
2022/12/25 00:50:13;;;;;;;102.78;33.45;;;6.90;99.90;;;;;;5070317;28;20070;-90
2022/12/25 00:52:38;;;;;;;93.93;33.35;;;6.90;99.90;;;;;;5056128;28;20042;-90
2022/12/25 00:55:04;;;;;;;109.57;34.30;;;6.90;99.90;;;;;;5067069;28;20493;-91
2022/12/25 00:57:45;;;;;;;112.70;38.92;;;6.80;99.90;;;;;;5077805;28;20056;-90
2022/12/25 01:00:12;;;;;;;114.68;40.10;;;6.80;99.90;;;;;;5116746;28;20497;-90
2022/12/25 01:02:37;;;;;;;102.47;41.53;;;6.80;99.90;;;;;;5082213;28;20122;-90
2022/12/25 01:05:04;;;;;;;93.53;38.55;;;6.80;99.90;;;;;;5057839;28;20062;-90
2022/12/25 01:07:30;;;;;;;91.90;38.83;;;6.80;99.90;;;;;;5075242;28;20739;-90
2022/12/25 01:12:41;;;;;;;104.95;42.35;;;6.70;99.90;;;;;;5081261;28;20027;-91
2022/12/25 01:15:09;;;;;;;95.90;39.80;;;6.60;99.90;;;;;;5078163;28;20040;-90
2022/12/25 01:17:34;;;;;;;107.90;43.88;;;6.60;99.90;;;;;;5068798;28;20032;-90
2022/12/25 01:20:00;;;;;;;97.13;42.10;;;6.60;99.90;;;;;;5088052;28;20028;-90
2022/12/25 01:22:26;;;;;;;113.40;44.10;;;6.50;99.90;;;;;;5085981;28;20030;-91
2022/12/25 01:24:52;;;;;;;111.15;46.10;;;6.50;99.90;;;;;;5074484;28;20826;-91
2022/12/25 01:27:17;;;;;;;110.50;44.80;;;6.50;99.90;;;;;;5095052;28;20050;-90
2022/12/25 01:29:45;;;;;;;111.45;43.55;;;6.60;99.90;;;;;;5061158;28;20076;-91
2022/12/25 01:32:11;;;;;;;119.40;42.25;;;6.50;99.90;;;;;;5071187;28;20535;-90
2022/12/25 01:34:36;;;;;;;108.20;37.53;;;6.50;99.90;;;;;;5056231;28;20026;-90
2022/12/25 01:37:02;;;;;;;87.90;32.83;;;6.50;99.90;;;;;;5082329;28;20031;-90
2022/12/25 01:39:28;;;;;;;74.40;29.48;;;6.50;99.90;;;;;;5088584;28;20030;-91
2022/12/25 01:41:54;;;;;;;83.78;29.52;;;6.50;99.90;;;;;;5077021;28;20085;-90
2022/12/25 01:44:35;;;;;;;69.57;28.75;;;6.50;99.90;;;;;;5077801;28;20026;-91
2022/12/25 01:47:04;;;;;;;65.97;28.55;;;6.60;99.90;;;;;;5059345;28;20477;-90
2022/12/25 01:49:33;;;;;;;72.38;28.77;;;6.60;99.90;;;;;;4990677;28;20087;-91
2022/12/25 01:52:10;;;;;;;77.18;28.02;;;6.70;99.90;;;;;;5121109;27;20031;-90
2022/12/25 01:54:44;;;;;;;51.45;25.42;;;6.60;99.90;;;;;;5069610;28;20027;-91
2022/12/25 01:57:17;;;;;;;68.25;26.00;;;6.70;99.90;;;;;;5044320;28;20027;-91
2022/12/25 01:59:44;;;;;;;61.17;25.02;;;6.60;99.90;;;;;;5056912;28;20026;-91
2022/12/25 02:02:10;;;;;;;54.15;23.70;;;6.70;99.90;;;;;;5066734;28;20016;-90
2022/12/25 02:04:40;;;;;;;57.03;25.27;;;6.70;99.90;;;;;;5072719;28;20499;-90
2022/12/25 02:07:18;;;;;;;57.15;22.73;;;6.70;99.90;;;;;;5114580;28;20047;-91
2022/12/25 02:13:31;;;;;;;63.83;22.55;;;6.70;99.90;;;;;;5072212;28;20033;-91
2022/12/25 02:16:14;;;;;;;55.90;23.95;;;6.70;99.90;;;;;;5074598;28;20501;-90
2022/12/25 02:18:45;;;;;;;51.40;23.23;;;6.70;99.90;;;;;;5075017;28;20024;-91
2022/12/25 02:21:17;;;;;;;60.85;23.80;;;6.60;99.90;;;;;;5056996;28;20023;-90
2022/12/25 02:24:02;;;;;;;65.88;24.60;;;6.70;99.90;;;;;;5063457;28;20054;-91
2022/12/25 02:26:31;;;;;;;69.13;26.13;;;6.70;99.90;;;;;;5077297;28;20026;-91
2022/12/25 02:29:16;;;;;;;56.55;24.33;;;6.70;99.90;;;;;;5066369;28;20042;-91
2022/12/25 02:31:52;;;;;;;61.92;26.55;;;6.60;99.90;;;;;;5069617;28;20042;-90
2022/12/25 02:34:30;;;;;;;65.18;24.30;;;6.60;99.90;;;;;;5070397;28;20049;-90
2022/12/25 02:37:20;;;;;;;62.63;24.77;;;6.60;99.90;;;;;;5091280;28;20031;-90
2022/12/25 02:39:59;;;;;;;67.95;25.25;;;6.50;99.90;;;;;;5095302;28;20038;-90
2022/12/25 03:07:48;;;;;;;142.57;27.35;;;6.30;99.90;;;;;;5091397;28;20073;-90
2022/12/25 03:13:07;;;;;;;508.08;40.58;;;6.30;99.90;;;;;;5085117;28;20554;-91
2022/12/25 03:18:23;;;;;;;688.83;44.55;;;6.30;99.90;;;;;;5070670;28;20128;-91
2022/12/25 03:29:05;;;;;;;68.72;19.88;;;6.10;99.90;;;;;;5079836;28;20542;-91
2022/12/25 03:31:52;;;;;;;44.35;16.65;;;6.00;99.90;;;;;;5075345;28;20061;-91
2022/12/25 04:38:05;;;;;;;174.40;39.50;;;6.20;99.90;;;;;;5036766;28;20047;-90
2022/12/25 04:40:31;;;;;;;125.10;39.15;;;6.30;99.90;;;;;;5074220;28;20434;-90
2022/12/25 04:42:56;;;;;;;173.45;39.58;;;6.30;99.90;;;;;;5104701;28;20429;-90
2022/12/25 04:45:22;;;;;;;226.50;45.47;;;6.30;99.90;;;;;;5069221;28;20119;-90
2022/12/25 04:47:48;;;;;;;178.10;43.38;;;6.30;99.90;;;;;;5093331;28;20059;-91
2022/12/25 04:50:25;;;;;;;115.72;40.40;;;6.30;99.90;;;;;;5077926;28;20430;-91
2022/12/25 04:52:51;;;;;;;127.47;40.35;;;6.30;99.90;;;;;;5063358;28;20027;-90
2022/12/25 04:55:17;;;;;;;194.13;44.00;;;6.30;99.90;;;;;;5082272;28;20032;-90
2022/12/25 04:57:42;;;;;;;191.52;45.25;;;6.30;99.90;;;;;;5079560;28;20038;-90
2022/12/25 05:00:08;;;;;;;283.92;46.22;;;6.30;99.90;;;;;;5052606;28;20086;-91
2022/12/25 05:02:34;;;;;;;233.43;45.28;;;6.30;99.90;;;;;;5073929;28;20020;-91
2022/12/25 05:05:00;;;;;;;206.15;42.97;;;6.40;99.90;;;;;;5042056;28;20492;-90
2022/12/25 05:07:25;;;;;;;284.15;45.17;;;6.40;99.90;;;;;;5085978;28;20039;-90
2022/12/25 05:09:51;;;;;;;190.07;41.30;;;6.40;99.90;;;;;;5091431;28;20536;-90
2022/12/25 05:12:17;;;;;;;229.40;47.42;;;6.40;99.90;;;;;;5062378;28;20477;-90
2022/12/25 05:14:42;;;;;;;450.02;52.35;;;6.40;99.90;;;;;;5083475;28;20026;-90
2022/12/25 05:17:08;;;;;;;268.30;46.95;;;6.40;99.90;;;;;;5112596;28;20035;-90
2022/12/25 05:19:34;;;;;;;490.80;60.28;;;6.40;99.90;;;;;;5077168;28;20026;-90
2022/12/25 05:21:59;;;;;;;670.78;67.07;;;6.40;99.90;;;;;;5098611;28;20039;-90
2022/12/25 05:24:26;;;;;;;598.75;69.43;;;6.40;99.90;;;;;;5057443;28;20542;-90
2022/12/25 05:26:53;;;;;;;461.33;57.72;;;6.40;99.90;;;;;;5087207;28;20036;-90
2022/12/25 05:29:18;;;;;;;344.60;44.20;;;6.40;99.90;;;;;;5069194;28;20035;-90
2022/12/25 05:31:44;;;;;;;287.83;45.38;;;6.40;99.90;;;;;;5097896;28;20024;-90
2022/12/25 05:34:10;;;;;;;395.38;50.40;;;6.50;99.90;;;;;;5055793;28;20038;-90
2022/12/25 05:36:35;;;;;;;320.48;46.53;;;6.50;99.90;;;;;;5074909;28;20640;-90
2022/12/25 05:39:01;;;;;;;307.83;48.30;;;6.50;99.90;;;;;;5063226;28;20485;-90
2022/12/25 05:41:27;;;;;;;439.40;47.58;;;6.50;99.90;;;;;;5067423;28;20477;-90
2022/12/25 05:43:52;;;;;;;680.05;66.97;;;6.50;99.90;;;;;;5095948;28;20439;-90
2022/12/25 05:46:18;;;;;;;520.08;55.47;;;6.50;99.90;;;;;;5082084;28;20052;-91
2022/12/25 05:48:43;;;;;;;681.40;61.42;;;6.50;99.90;;;;;;5088126;28;20029;-90
2022/12/25 05:51:12;;;;;;;841.20;73.80;;;6.50;99.90;;;;;;5069346;28;20026;-90
2022/12/25 05:53:39;;;;;;;573.28;54.13;;;6.50;99.90;;;;;;5081450;28;20163;-90
2022/12/25 05:56:06;;;;;;;187.77;37.17;;;6.40;99.90;;;;;;5102916;28;20028;-89
2022/12/25 05:58:34;;;;;;;401.65;45.88;;;6.40;99.90;;;;;;5074489;28;20122;-90
2022/12/25 06:01:56;;;;;;;412.48;45.15;;;6.50;99.90;;;;;;5093879;28;20035;-90
2022/12/25 06:04:21;;;;;;;374.23;44.58;;;6.50;99.90;;;;;;5107020;27;20141;-90
2022/12/25 06:06:47;;;;;;;101.03;34.92;;;6.50;99.90;;;;;;5073013;28;20882;-90
2022/12/25 06:09:13;;;;;;;77.97;30.30;;;6.50;99.90;;;;;;5106815;28;20471;-90
2022/12/25 06:11:39;;;;;;;93.95;29.85;;;6.40;99.90;;;;;;5049416;28;20030;-90
2022/12/25 06:14:05;;;;;;;87.82;31.15;;;6.40;99.90;;;;;;5094110;28;20035;-90
2022/12/25 06:16:31;;;;;;;81.50;29.02;;;6.40;99.90;;;;;;5059678;28;20037;-91
2022/12/25 06:18:56;;;;;;;74.18;28.58;;;6.40;99.90;;;;;;5082311;28;20032;-89
2022/12/25 06:21:22;;;;;;;73.82;28.02;;;6.40;99.90;;;;;;5075270;28;20180;-91
2022/12/25 06:23:48;;;;;;;70.88;26.20;;;6.30;99.90;;;;;;5074673;28;20068;-91
2022/12/25 06:26:16;;;;;;;80.95;27.27;;;6.20;99.90;;;;;;5044768;28;20027;-90
2022/12/25 06:28:42;;;;;;;65.85;26.13;;;6.20;99.90;;;;;;5068618;28;20100;-90
2022/12/25 06:31:11;;;;;;;72.45;26.70;;;6.10;99.90;;;;;;5092698;28;20027;-91
2022/12/25 06:33:37;;;;;;;69.32;26.85;;;6.10;99.90;;;;;;5061860;28;20034;-91
2022/12/25 06:36:08;;;;;;;73.32;26.23;;;6.00;99.90;;;;;;5061942;28;20103;-90
2022/12/25 06:38:34;;;;;;;76.82;27.60;;;6.10;99.90;;;;;;5070980;28;20083;-90
2022/12/25 06:41:09;;;;;;;67.10;26.67;;;6.20;99.90;;;;;;5066450;28;20034;-90
2022/12/25 06:43:35;;;;;;;67.47;25.58;;;6.30;99.90;;;;;;5082598;28;20024;-90
2022/12/25 06:46:06;;;;;;;76.60;26.80;;;6.40;99.90;;;;;;5063287;28;20026;-90
2022/12/25 06:48:33;;;;;;;76.72;29.60;;;6.50;99.90;;;;;;5072619;28;20042;-90
2022/12/25 06:50:59;;;;;;;83.90;30.40;;;6.60;99.90;;;;;;5095657;28;20039;-90
2022/12/25 06:53:25;;;;;;;84.00;30.25;;;6.50;99.90;;;;;;5065583;28;20239;-90
2022/12/25 06:55:50;;;;;;;78.20;30.35;;;6.60;99.90;;;;;;5084539;28;20040;-90
2022/12/25 06:58:16;;;;;;;75.78;30.60;;;6.60;99.90;;;;;;5076044;28;20474;-90
2022/12/25 07:00:42;;;;;;;75.10;28.00;;;6.60;99.90;;;;;;5071181;28;20691;-90
2022/12/25 07:03:08;;;;;;;78.47;29.02;;;6.60;99.90;;;;;;5077055;28;20037;-90
2022/12/25 07:05:33;;;;;;;71.93;28.90;;;6.60;99.90;;;;;;5074884;28;20034;-90
2022/12/25 07:07:59;;;;;;;84.30;29.67;;;6.60;99.90;;;;;;5062808;28;20071;-90
2022/12/25 07:10:25;;;;;;;71.55;29.67;;;6.60;99.90;;;;;;5085326;28;20112;-90
2022/12/25 07:12:50;;;;;;;65.60;28.63;;;6.70;99.90;;;;;;5081495;28;20043;-90
2022/12/25 07:15:16;;;;;;;60.55;27.55;;;6.70;99.90;;;;;;5075515;28;20031;-90
2022/12/25 07:17:42;;;;;;;75.45;30.02;;;6.70;99.90;;;;;;5075731;28;20035;-90
2022/12/25 07:20:08;;;;;;;66.25;31.48;;;6.70;99.90;;;;;;5058316;28;20486;-90
2022/12/25 07:22:34;;;;;;;68.30;30.52;;;6.60;99.90;;;;;;4992164;28;20041;-91
2022/12/25 07:25:00;;;;;;;60.03;29.42;;;6.70;99.90;;;;;;4994078;28;20034;-90
2022/12/25 07:27:25;;;;;;;65.57;29.30;;;6.70;99.90;;;;;;5015775;28;20370;-91
2022/12/25 07:29:51;;;;;;;60.55;28.67;;;6.70;99.90;;;;;;5035433;28;20464;-90
2022/12/25 07:32:17;;;;;;;61.75;27.35;;;6.60;99.90;;;;;;5082329;28;20031;-90
2022/12/25 07:34:52;;;;;;;62.58;28.08;;;6.60;99.90;;;;;;5069106;28;20028;-90
2022/12/25 07:37:17;;;;;;;68.35;28.40;;;6.60;99.90;;;;;;5082017;28;20039;-90
2022/12/25 07:39:43;;;;;;;63.92;25.65;;;6.60;99.90;;;;;;5062152;28;20072;-90
2022/12/25 07:42:09;;;;;;;51.70;23.38;;;6.60;99.90;;;;;;5083017;28;20019;-91
2022/12/25 07:44:36;;;;;;;60.90;23.73;;;6.60;99.90;;;;;;5044590;28;20061;-90
2022/12/25 07:47:33;;;;;;;49.08;21.58;;;6.50;99.90;;;;;;5090213;28;20030;-91
2022/12/25 07:50:20;;;;;;;45.88;20.35;;;6.50;99.90;;;;;;5033069;28;20090;-90
2022/12/25 07:52:46;;;;;;;51.08;20.25;;;6.40;99.90;;;;;;5027250;28;20068;-90
2022/12/25 07:55:12;;;;;;;47.40;20.75;;;6.40;99.90;;;;;;5059732;28;20022;-91
2022/12/25 07:57:38;;;;;;;63.10;23.70;;;6.40;99.90;;;;;;5069597;28;20505;-90
2022/12/25 08:00:05;;;;;;;47.70;19.60;;;6.40;99.90;;;;;;5051356;28;20027;-91
2022/12/25 08:02:37;;;;;;;45.88;21.75;;;6.50;99.90;;;;;;5040770;28;20083;-91
2022/12/25 08:05:03;;;;;;;42.10;18.77;;;6.50;99.90;;;;;;5023693;28;20116;-91
2022/12/25 08:07:29;;;;;;;44.80;19.45;;;6.60;99.90;;;;;;5031733;28;20027;-91
2022/12/25 08:09:55;;;;;;;37.00;16.98;;;6.70;99.90;;;;;;5055168;28;20035;-90
2022/12/25 08:12:20;;;;;;;38.75;16.90;;;6.70;99.90;;;;;;5076764;28;20028;-91
2022/12/25 08:14:46;;;;;;;49.22;23.48;;;6.80;99.90;;;;;;5079983;28;20038;-91
2022/12/25 08:17:12;;;;;;;51.95;22.13;;;6.90;99.90;;;;;;5052222;28;20062;-91
2022/12/25 08:19:38;;;;;;;40.33;20.05;;;6.90;99.90;;;;;;5050021;28;20036;-91
2022/12/25 08:22:03;;;;;;;50.78;26.02;;;7.00;99.90;;;;;;5022464;28;20026;-90
2022/12/25 08:24:29;;;;;;;60.65;30.77;;;7.10;99.90;;;;;;5081744;28;20073;-90
2022/12/25 08:27:35;;;;;;;46.65;24.67;;;7.20;99.90;;;;;;5083961;28;20062;-91
2022/12/25 08:30:01;;;;;;;36.03;21.52;;;7.10;99.90;;;;;;5090438;28;20034;-90
2022/12/25 08:32:27;;;;;;;33.13;17.10;;;7.20;99.90;;;;;;5016975;28;20027;-90
2022/12/25 08:34:52;;;;;;;37.40;15.90;;;7.20;99.90;;;;;;5011010;28;20038;-91
2022/12/25 08:37:18;;;;;;;36.28;15.88;;;7.30;99.90;;;;;;5020943;28;20033;-90
2022/12/25 08:39:44;;;;;;;25.77;14.55;;;7.20;99.90;;;;;;5010666;28;20088;-91
2022/12/25 08:42:09;;;;;;;29.73;14.70;;;7.20;99.90;;;;;;5017600;28;20030;-90
2022/12/25 08:44:35;;;;;;;30.02;14.38;;;7.20;99.90;;;;;;5027253;28;20481;-90
2022/12/25 08:47:01;;;;;;;20.60;12.18;;;7.30;99.90;;;;;;5100041;28;20081;-90
2022/12/25 08:49:27;;;;;;;29.83;14.40;;;7.30;99.90;;;;;;5022368;28;20043;-91
2022/12/25 08:51:53;;;;;;;34.95;15.30;;;7.40;99.90;;;;;;5047796;28;20117;-91
2022/12/25 08:54:19;;;;;;;30.17;15.73;;;7.40;99.90;;;;;;5071075;28;20042;-90
2022/12/25 08:56:46;;;;;;;28.48;13.90;;;7.50;99.90;;;;;;5080310;28;20097;-91
2022/12/25 08:59:12;;;;;;;24.92;13.82;;;7.50;99.90;;;;;;5093958;28;20026;-91
2022/12/25 09:01:38;;;;;;;39.60;14.93;;;7.50;99.90;;;;;;5050057;28;20084;-90
2022/12/25 09:04:04;;;;;;;26.90;13.32;;;7.60;99.90;;;;;;5047078;28;20020;-90
2022/12/25 09:06:29;;;;;;;23.35;12.32;;;7.50;99.90;;;;;;5064100;28;20028;-90
2022/12/25 09:08:55;;;;;;;18.15;10.32;;;7.60;99.90;;;;;;5042735;28;20074;-90
2022/12/25 09:14:43;;;;;;;15.40;9.25;;;7.60;99.90;;;;;;5063283;28;20032;-90
2022/12/25 09:17:09;;;;;;;21.23;10.98;;;7.70;99.90;;;;;;5117122;28;20059;-89
2022/12/25 09:19:35;;;;;;;19.00;10.23;;;7.70;99.90;;;;;;5083216;28;20103;-91
2022/12/25 09:22:00;;;;;;;20.05;11.65;;;7.70;99.90;;;;;;5060392;28;20035;-89
2022/12/25 09:24:26;;;;;;;18.10;8.55;;;7.80;99.90;;;;;;5090279;28;20077;-91
2022/12/25 09:27:10;;;;;;;14.57;8.80;;;7.80;99.90;;;;;;5052929;28;20030;-90
2022/12/25 09:29:57;;;;;;;15.50;8.00;;;7.90;99.90;;;;;;5116030;28;20050;-90
2022/12/25 09:32:23;;;;;;;14.35;7.70;;;8.00;99.90;;;;;;5091302;28;20400;-89
2022/12/25 09:34:49;;;;;;;21.27;7.95;;;8.10;99.90;;;;;;5063505;28;20028;-88
2022/12/25 09:37:15;;;;;;;16.92;7.30;;;8.20;99.90;;;;;;5065140;28;20037;-89
2022/12/25 09:39:40;;;;;;;13.13;8.10;;;8.30;99.90;;;;;;5077159;28;20111;-89
2022/12/25 09:42:30;;;;;;;8.98;6.20;;;8.40;99.90;;;;;;5046916;28;20034;-89
2022/12/25 09:45:01;;;;;;;11.02;6.28;;;8.50;99.90;;;;;;5069085;28;20372;-90
2022/12/25 09:47:29;;;;;;;11.63;5.63;;;8.60;99.90;;;;;;5113758;28;20084;-89
2022/12/25 09:50:14;;;;;;;7.70;5.20;;;8.80;99.90;;;;;;5056130;28;20111;-90
2022/12/25 09:53:21;;;;;;;11.82;5.28;;;8.90;99.90;;;;;;5010624;28;20030;-90
2022/12/25 09:56:09;;;;;;;10.13;4.82;;;8.90;99.90;;;;;;5055980;28;20530;-90
2022/12/25 09:58:35;;;;;;;5.47;4.15;;;8.90;99.90;;;;;;5057308;28;20035;-90
2022/12/25 10:01:38;;;;;;;4.95;3.97;;;8.90;99.90;;;;;;5092685;28;20027;-90
2022/12/25 10:04:41;;;;;;;7.53;4.25;;;9.20;99.90;;;;;;5052742;28;20122;-90
2022/12/25 10:07:34;;;;;;;5.38;3.80;;;9.30;99.90;;;;;;5093837;28;20399;-89
2022/12/25 10:10:23;;;;;;;5.47;3.03;;;9.20;99.90;;;;;;5049665;28;20131;-89
2022/12/25 10:13:08;;;;;;;6.40;2.80;;;9.20;99.90;;;;;;5011179;28;20030;-90
2022/12/25 10:16:08;;;;;;;3.17;2.88;;;9.40;99.90;;;;;;5016923;28;20054;-90
2022/12/25 10:18:50;;;;;;;5.30;3.45;;;9.50;99.90;;;;;;5009587;28;20163;-90
2022/12/25 10:21:17;;;;;;;4.60;3.08;;;9.60;99.90;;;;;;5064973;28;20662;-91
2022/12/25 10:23:53;;;;;;;6.15;2.78;;;9.80;99.90;;;;;;5058201;28;20023;-90
2022/12/25 10:26:22;;;;;;;3.78;2.80;;;9.70;99.90;;;;;;5072554;28;20147;-89
2022/12/25 10:29:13;;;;;;;5.03;2.78;;;9.70;99.90;;;;;;5083857;28;20027;-90
2022/12/25 10:31:40;;;;;;;3.08;2.55;;;9.70;99.90;;;;;;5085801;27;20038;-90
2022/12/25 10:34:10;;;;;;;6.57;2.60;;;9.60;99.90;;;;;;5095023;27;20033;-90
2022/12/25 10:36:36;;;;;;;4.57;2.58;;;9.40;99.90;;;;;;5116124;27;20560;-90
2022/12/25 10:39:02;;;;;;;4.45;2.50;;;9.20;99.90;;;;;;5032003;28;20053;-90
2022/12/25 10:41:47;;;;;;;5.25;2.80;;;9.20;99.90;;;;;;5045984;28;20137;-90
2022/12/25 10:44:19;;;;;;;4.53;2.42;;;9.20;99.90;;;;;;5036911;28;20030;-89
2022/12/25 10:46:54;;;;;;;5.32;2.92;;;9.10;99.90;;;;;;5013233;28;20027;-89
2022/12/25 10:49:22;;;;;;;3.97;3.22;;;9.10;99.90;;;;;;5080361;28;20039;-90
2022/12/25 10:51:49;;;;;;;6.30;3.85;;;9.20;99.90;;;;;;5004558;28;20484;-89
2022/12/25 10:54:20;;;;;;;4.35;3.38;;;9.20;99.90;;;;;;5083843;28;20390;-88
2022/12/25 10:56:58;;;;;;;;;;;9.30;99.90;;;;;;5078525;28;20047;-90
2022/12/25 10:59:26;;;;;;;5.40;3.47;;;9.30;99.90;;;;;;5072117;28;20007;-89
2022/12/25 11:01:53;;;;;;;5.90;3.72;;;9.20;99.90;;;;;;5090414;28;20059;-90
2022/12/25 11:04:28;;;;;;;4.53;2.90;;;9.20;99.90;;;;;;5060830;28;20026;-90
2022/12/25 11:07:17;;;;;;;9.27;4.57;;;9.10;99.90;;;;;;5059542;28;20044;-90
2022/12/25 11:10:01;;;;;;;6.80;4.13;;;9.00;99.90;;;;;;5075340;28;20110;-90
2022/12/25 11:12:35;;;;;;;5.40;3.55;;;9.00;99.90;;;;;;5062244;28;20370;-90
2022/12/25 11:15:24;;;;;;;5.40;3.92;;;9.00;99.90;;;;;;5077919;28;20422;-90
2022/12/25 11:17:50;;;;;;;7.55;4.28;;;9.00;99.90;;;;;;5051388;28;20038;-89
2022/12/25 11:20:18;;;;;;;9.00;4.07;;;9.00;99.90;;;;;;5056150;28;20519;-90
2022/12/25 11:22:46;;;;;;;8.13;3.85;;;9.00;99.90;;;;;;5068068;28;20023;-89
2022/12/25 11:25:24;;;;;;;8.35;4.68;;;9.00;99.90;;;;;;5092764;28;20114;-89
2022/12/25 11:27:58;;;;;;;8.30;4.57;;;9.10;99.90;;;;;;5072230;28;20160;-90
2022/12/25 11:30:24;;;;;;;6.28;3.67;;;9.20;99.90;;;;;;5096029;28;20032;-90
2022/12/25 11:32:55;;;;;;;8.20;4.38;;;9.40;99.90;;;;;;5043497;28;20473;-90
2022/12/25 11:35:24;;;;;;;5.30;3.97;;;9.50;99.90;;;;;;5080209;28;20432;-89
2022/12/25 11:37:53;;;;;;;5.93;3.30;;;9.60;99.90;;;;;;5070453;28;20040;-89
2022/12/25 11:40:27;;;;;;;6.45;3.97;;;9.50;99.90;;;;;;5084778;28;20023;-90
2022/12/25 11:43:09;;;;;;;8.57;5.20;;;9.50;99.90;;;;;;5078961;28;20031;-90
2022/12/25 11:45:43;;;;;;;12.35;5.78;;;9.60;99.90;;;;;;5070114;28;20475;-90
2022/12/25 11:48:18;;;;;;;18.48;8.13;;;9.60;99.90;;;;;;5071957;28;20043;-90
2022/12/25 11:50:58;;;;;;;9.52;6.05;;;9.70;99.90;;;;;;5062619;28;20085;-90
2022/12/25 11:53:40;;;;;;;7.20;4.28;;;9.80;99.90;;;;;;5060173;28;20051;-89
2022/12/25 11:56:09;;;;;;;23.80;10.93;;;9.70;99.90;;;;;;5079410;28;20063;-89
2022/12/25 11:58:45;;;;;;;13.15;7.65;;;9.80;99.90;;;;;;5073750;28;20023;-89
2022/12/25 12:01:36;;;;;;;11.82;7.85;;;9.70;99.90;;;;;;5075265;28;20082;-89
2022/12/25 12:08:05;;;;;;;10.18;6.82;;;9.60;99.90;;;;;;5075524;28;20041;-90
2022/12/25 12:10:55;;;;;;;16.02;8.45;;;9.60;99.90;;;;;;5073894;28;20453;-89
2022/12/25 12:14:00;;;;;;;13.63;7.57;;;9.50;99.90;;;;;;5061232;28;20033;-90
2022/12/25 12:16:26;;;;;;;11.93;6.07;;;9.70;99.90;;;;;;5081125;28;20034;-90
2022/12/25 12:18:51;;;;;;;11.45;7.35;;;9.80;99.90;;;;;;5033338;28;20495;-91
2022/12/25 12:21:20;;;;;;;10.05;6.43;;;9.90;99.90;;;;;;5085396;28;20024;-90
2022/12/25 12:24:18;;;;;;;14.00;7.30;;;9.80;99.90;;;;;;5059564;28;20375;-90
2022/12/25 12:26:46;;;;;;;20.10;8.88;;;9.90;99.90;;;;;;5051983;28;20066;-90
2022/12/25 12:29:24;;;;;;;21.83;9.07;;;9.90;99.90;;;;;;5076774;28;20028;-90
2022/12/25 12:31:51;;;;;;;28.67;11.35;;;9.80;99.90;;;;;;5063699;28;20034;-90
2022/12/25 12:34:27;;;;;;;20.15;8.27;;;9.80;99.90;;;;;;5053781;28;20030;-90
2022/12/25 12:37:02;;;;;;;9.52;6.22;;;9.80;99.90;;;;;;5073933;28;20483;-90
2022/12/25 12:39:36;;;;;;;12.77;6.65;;;9.90;99.90;;;;;;5058567;28;20536;-90
2022/12/25 12:42:11;;;;;;;9.18;5.70;;;9.90;99.90;;;;;;5005798;28;20034;-89
2022/12/25 12:45:17;;;;;;;10.88;5.95;;;10.00;99.90;;;;;;5057517;28;20041;-90
2022/12/25 12:47:47;;;;;;;8.13;5.28;;;10.10;99.90;;;;;;5037645;28;20035;-90
2022/12/25 12:50:27;;;;;;;11.40;6.30;;;10.20;99.90;;;;;;5080474;28;20026;-91
2022/12/25 12:52:54;;;;;;;14.23;5.87;;;10.20;99.90;;;;;;5013183;28;20033;-90
2022/12/25 12:55:33;;;;;;;9.23;5.72;;;10.20;99.90;;;;;;5030680;28;20265;-91
2022/12/25 12:58:04;;;;;;;12.38;7.78;;;10.20;99.90;;;;;;5054095;28;20031;-91
2022/12/25 13:00:45;;;;;;;12.43;6.00;;;10.30;99.90;;;;;;5035477;28;20033;-89
2022/12/25 13:03:33;;;;;;;7.28;4.80;;;10.30;99.90;;;;;;5078717;28;20021;-91
2022/12/25 13:06:16;;;;;;;7.60;5.32;;;10.20;99.90;;;;;;5135116;27;20059;-90
2022/12/25 13:08:47;;;;;;;9.45;5.35;;;10.10;99.90;;;;;;5013176;28;20102;-90
2022/12/25 13:11:13;;;;;;;;;;;10.10;99.90;;;;;;5071846;28;20129;-90
2022/12/25 13:13:41;;;;;;;9.93;6.28;;;10.10;99.90;;;;;;5136369;27;19954;-90
2022/12/25 13:16:41;;;;;;;7.60;5.07;;;10.00;99.90;;;;;;5079307;28;20078;-91
2022/12/25 13:19:16;;;;;;;7.68;4.78;;;9.90;99.90;;;;;;5045328;28;20046;-91
2022/12/25 13:21:55;;;;;;;8.07;5.53;;;9.90;99.90;;;;;;5014879;28;20508;-91
2022/12/25 13:24:24;;;;;;;6.47;4.88;;;9.80;99.90;;;;;;5083459;28;20030;-91
2022/12/25 13:26:50;;;;;;;11.77;5.93;;;9.80;99.90;;;;;;5080958;28;20051;-91
2022/12/25 13:29:42;;;;;;;10.10;5.95;;;9.80;99.90;;;;;;5063400;28;20033;-91
2022/12/25 13:32:45;;;;;;;7.60;4.60;;;9.90;99.90;;;;;;5036721;28;20039;-91
2022/12/25 13:35:16;;;;;;;10.68;6.63;;;9.90;99.90;;;;;;5010597;28;20112;-91
2022/12/25 13:37:43;;;;;;;9.88;5.55;;;10.00;99.90;;;;;;5057207;28;20034;-92
2022/12/25 13:40:26;;;;;;;8.45;5.18;;;10.10;99.90;;;;;;5068671;28;20028;-91
2022/12/25 13:43:00;;;;;;;10.93;4.95;;;10.30;99.90;;;;;;5038893;28;20035;-91
2022/12/25 13:45:29;;;;;;;10.65;5.72;;;10.50;99.90;;;;;;5048206;28;20030;-91
2022/12/25 13:47:55;;;;;;;7.25;4.28;;;10.70;99.90;;;;;;5072795;28;20032;-92
2022/12/25 13:50:30;;;;;;;6.82;4.70;;;10.70;99.90;;;;;;5081916;28;20089;-91
2022/12/25 13:53:09;;;;;;;8.60;5.28;;;10.80;99.90;;;;;;5086394;28;20379;-91
2022/12/25 13:55:42;;;;;;;12.32;6.05;;;10.90;99.90;;;;;;5072349;28;20410;-91
2022/12/25 13:58:17;;;;;;;90.85;22.75;;;10.90;99.90;;;;;;5056769;28;20031;-91
2022/12/25 14:00:54;;;;;;;53.40;14.43;;;10.80;99.90;;;;;;5087600;28;20011;-90
2022/12/25 14:03:45;;;;;;;20.10;10.02;;;10.70;99.90;;;;;;5076299;28;20389;-90
2022/12/25 14:06:20;;;;;;;13.90;8.35;;;10.60;99.90;;;;;;5052629;28;20475;-90
2022/12/25 14:08:47;;;;;;;11.13;6.72;;;10.60;99.90;;;;;;5050712;28;20106;-91
2022/12/25 14:11:19;;;;;;;15.27;9.10;;;10.50;99.90;;;;;;5089891;28;20050;-91
2022/12/25 14:13:48;;;;;;;14.18;9.40;;;10.40;99.90;;;;;;5013846;28;20061;-90
2022/12/25 14:16:19;;;;;;;14.15;10.35;;;10.40;99.90;;;;;;5081310;28;20061;-90
2022/12/25 14:18:59;;;;;;;14.63;10.45;;;10.30;99.90;;;;;;5080283;28;20490;-90
2022/12/25 14:21:33;;;;;;;18.05;12.60;;;10.20;99.90;;;;;;5061479;28;20057;-90
2022/12/25 14:23:59;;;;;;;21.90;13.63;;;10.10;99.90;;;;;;5093143;28;20024;-91
2022/12/25 14:26:29;;;;;;;15.15;7.47;;;10.10;99.90;;;;;;5065197;28;20061;-90
2022/12/25 14:29:07;;;;;;;15.65;10.82;;;10.00;99.90;;;;;;5083340;28;20547;-90
2022/12/25 14:31:34;;;;;;;18.58;11.85;;;10.00;99.90;;;;;;5065617;28;20029;-91
2022/12/25 14:34:02;;;;;;;28.63;16.65;;;9.90;99.90;;;;;;5073034;28;20535;-90
2022/12/25 14:36:29;;;;;;;96.38;43.28;;;9.80;99.90;;;;;;5105759;28;20031;-90
2022/12/25 14:39:01;;;;;;;146.98;63.55;;;9.80;99.90;;;;;;5070286;28;20033;-91
2022/12/25 14:41:40;;;;;;;146.95;61.88;;;9.80;99.90;;;;;;5099077;28;20538;-91
2022/12/25 14:44:38;;;;;;;60.15;31.55;;;9.80;99.90;;;;;;5074806;28;20034;-90
2022/12/25 14:47:13;;;;;;;18.88;11.13;;;9.80;99.90;;;;;;5068118;28;20090;-91
2022/12/25 14:49:39;;;;;;;14.60;9.82;;;9.80;99.90;;;;;;5111666;28;20169;-90
2022/12/25 14:55:53;;;;;;;12.90;7.70;;;9.70;99.90;;;;;;5073675;28;20085;-90
2022/12/25 14:58:26;;;;;;;15.25;11.50;;;9.60;99.90;;;;;;5051353;28;20055;-91
2022/12/25 15:01:00;;;;;;;20.17;14.55;;;9.50;99.90;;;;;;5120708;28;20027;-91
2022/12/25 15:03:29;;;;;;;33.38;23.88;;;9.30;99.90;;;;;;5080312;28;20026;-91